Etusivu
METAR-TAF:

METAR-TAF

Lentoasemat :

Bellefontaine, Ohio, Yhdysvallat

Leveyspiiri: 40-22-20N, Pituuspiiri: 083-49-08W, korkeus merenpinnasta: 342 m

Tämänhetkinen sää

Tämä raportti tehtiin 17 minuuttia sitten, kello 16.35 UTC
Tuuli 13 kn lännestä/lounaasta
Lämpötila 2°C
Kosteus 51%
Ilmanpaine 1027 hPa
Näkyvyys: 16.1 km
selkeää

METAR: KEDJ 221635Z AUTO 25013KT 10SM CLR 02/M07 A3034 RMK AO1

Aika: 11:52 (16:52 UTC)


TAF: puuttuu

Säähavainnot ja -ennusteet yli 4000 lentoasemalta (METAR- ja TAF-raportit).

Käytössä olevat sääasemat on merkitty karttaan keltaisilla ja punaisilla pisteillä.

Aseta hiiri pisteen päälle nähdäksesi sääaseman nimen.

Klikkaa sitten nähdäksesi säähavainnot ja -ennusteet.

Kartan vaihtaminen: klikkaa mustalla rastilla varustettuja vihreitä pisteitä, niin voit zoomata sisään; viivalla varustettua vihreää pistettä, niin voit zoomata ulos tai vihreitä nuolia, niin pääset viereisille kartoille.


METAR-TAF: